createdAt,value
2023-01-29T00:02:24.880Z,-0.60
2023-01-29T00:04:51.876Z,-0.60
2023-01-29T00:07:18.855Z,-0.60
2023-01-29T00:09:48.079Z,-0.60
2023-01-29T00:12:14.992Z,-0.60
2023-01-29T00:14:41.933Z,-0.60
2023-01-29T00:17:08.885Z,-0.60
2023-01-29T00:19:42.584Z,-0.50
2023-01-29T00:22:15.889Z,-0.60
2023-01-29T00:24:44.448Z,-0.50
2023-01-29T00:27:11.471Z,-0.50
2023-01-29T00:29:38.477Z,-0.50
2023-01-29T00:32:05.511Z,-0.50
2023-01-29T00:34:32.624Z,-0.60
2023-01-29T00:37:04.885Z,-0.60
2023-01-29T00:39:47.351Z,-0.60
2023-01-29T00:42:33.495Z,-0.60
2023-01-29T00:45:00.903Z,-0.60
2023-01-29T00:47:31.001Z,-0.70
2023-01-29T00:49:58.133Z,-0.70
2023-01-29T00:52:25.144Z,-0.70
2023-01-29T00:54:53.019Z,-0.70
2023-01-29T00:57:20.172Z,-0.70
2023-01-29T00:59:49.317Z,-0.70
2023-01-29T01:02:34.872Z,-0.70
2023-01-29T01:05:06.223Z,-0.70
2023-01-29T01:07:40.758Z,-0.70
2023-01-29T01:10:21.718Z,-0.70
2023-01-29T01:12:59.554Z,-0.70
2023-01-29T01:15:28.783Z,-0.70
2023-01-29T01:17:56.747Z,-0.60
2023-01-29T01:20:24.396Z,-0.60
2023-01-29T01:22:53.225Z,-0.60
2023-01-29T01:25:20.322Z,-0.60
2023-01-29T01:27:47.850Z,-0.50
2023-01-29T01:30:16.234Z,-0.60
2023-01-29T01:32:43.568Z,-0.60
2023-01-29T01:35:10.879Z,-0.60
2023-01-29T01:37:41.324Z,-0.60
2023-01-29T01:40:18.413Z,-0.60
2023-01-29T01:42:53.461Z,-0.60
2023-01-29T01:45:31.808Z,-0.60
2023-01-29T01:48:02.278Z,-0.60
2023-01-29T01:50:35.328Z,-0.60
2023-01-29T01:53:13.350Z,-0.60
2023-01-29T01:55:52.006Z,-0.60
2023-01-29T01:58:24.867Z,-0.50
2023-01-29T02:00:52.092Z,-0.60
2023-01-29T02:03:38.556Z,-0.50
2023-01-29T02:06:24.255Z,-0.50
2023-01-29T02:09:21.923Z,-0.50
2023-01-29T02:11:49.066Z,-0.50
2023-01-29T02:14:16.251Z,-0.50
2023-01-29T02:16:43.152Z,-0.50
2023-01-29T02:19:12.894Z,-0.50
2023-01-29T02:22:06.871Z,-0.50
2023-01-29T02:25:00.575Z,-0.50
2023-01-29T02:27:35.937Z,-0.50
2023-01-29T02:30:06.244Z,-0.40
2023-01-29T02:32:58.593Z,-0.40
2023-01-29T02:35:30.206Z,-0.40
2023-01-29T02:38:15.968Z,-0.40
2023-01-29T02:40:49.411Z,-0.40
2023-01-29T02:43:19.808Z,-0.30
2023-01-29T02:45:50.697Z,-0.30
2023-01-29T02:48:25.028Z,-0.30
2023-01-29T02:51:11.697Z,-0.20
2023-01-29T02:53:50.504Z,-0.20
2023-01-29T02:56:29.150Z,-0.20
2023-01-29T02:59:06.288Z,-0.20
2023-01-29T03:01:38.291Z,-0.20
2023-01-29T03:04:08.427Z,-0.20
2023-01-29T03:06:36.258Z,-0.10
2023-01-29T03:09:05.561Z,-0.10
2023-01-29T03:11:37.308Z,-0.10
2023-01-29T03:14:08.212Z,-0.10
2023-01-29T03:16:35.228Z,0.00
2023-01-29T03:19:10.258Z,0.00
2023-01-29T03:21:59.689Z,0.00
2023-01-29T03:25:08.367Z,0.00
2023-01-29T03:28:02.337Z,0.00
2023-01-29T03:30:55.747Z,0.10
2023-01-29T03:34:04.088Z,0.10
2023-01-29T03:36:45.439Z,0.10
2023-01-29T03:39:14.639Z,0.10
2023-01-29T03:41:56.087Z,0.10
2023-01-29T03:44:33.160Z,0.10
2023-01-29T03:47:16.777Z,0.10
2023-01-29T03:50:10.050Z,0.10
2023-01-29T03:52:46.466Z,0.10
2023-01-29T03:55:17.232Z,0.00
2023-01-29T03:58:04.452Z,0.00
2023-01-29T04:00:42.613Z,0.10
2023-01-29T04:03:16.193Z,0.10
2023-01-29T04:05:49.460Z,0.10
2023-01-29T04:08:27.518Z,0.10
2023-01-29T04:11:00.209Z,0.10
2023-01-29T04:13:30.280Z,0.10
2023-01-29T04:15:58.540Z,0.10
2023-01-29T04:19:01.469Z,0.10
2023-01-29T04:21:46.598Z,0.10
2023-01-29T04:24:20.478Z,0.20
2023-01-29T04:26:56.028Z,0.20
2023-01-29T04:29:46.755Z,0.20
2023-01-29T04:32:32.160Z,0.20
2023-01-29T04:35:17.897Z,0.20
2023-01-29T04:37:56.269Z,0.20
2023-01-29T04:40:32.433Z,0.20
2023-01-29T04:43:05.366Z,0.20
2023-01-29T04:45:41.895Z,0.20
2023-01-29T04:48:29.050Z,0.20
2023-01-29T04:50:56.041Z,0.20
2023-01-29T04:53:36.501Z,0.30
2023-01-29T04:56:20.455Z,0.30
2023-01-29T04:58:59.952Z,0.30
2023-01-29T05:01:29.925Z,0.30
2023-01-29T05:03:57.625Z,0.30
2023-01-29T05:06:25.497Z,0.30
2023-01-29T05:08:52.622Z,0.40
2023-01-29T05:11:19.951Z,0.30
2023-01-29T05:13:48.220Z,0.40
2023-01-29T05:16:28.007Z,0.40
2023-01-29T05:18:55.071Z,0.40
2023-01-29T05:21:23.546Z,0.40
2023-01-29T05:24:12.214Z,0.40
2023-01-29T05:26:57.695Z,0.40
2023-01-29T05:29:24.749Z,0.40
2023-01-29T05:31:51.809Z,0.40
2023-01-29T05:34:18.773Z,0.50
2023-01-29T05:36:45.727Z,0.50
2023-01-29T05:39:12.614Z,0.50
2023-01-29T05:41:39.795Z,0.50
2023-01-29T05:44:06.701Z,0.50
2023-01-29T05:46:40.733Z,0.50
2023-01-29T05:49:29.487Z,0.60
2023-01-29T05:52:03.193Z,0.60
2023-01-29T05:54:30.106Z,0.60
2023-01-29T05:56:57.145Z,0.70
2023-01-29T05:59:26.667Z,0.70
2023-01-29T06:01:53.704Z,0.70
2023-01-29T06:04:20.621Z,0.70
2023-01-29T06:06:47.714Z,0.70
2023-01-29T06:09:14.656Z,0.70
2023-01-29T06:11:41.605Z,0.70
2023-01-29T06:14:08.692Z,0.70
2023-01-29T06:16:35.744Z,0.70
2023-01-29T06:19:02.854Z,0.70
2023-01-29T06:21:29.825Z,0.70
2023-01-29T06:23:56.817Z,0.80
2023-01-29T06:26:23.761Z,0.80
2023-01-29T06:28:50.988Z,0.80
2023-01-29T06:31:37.845Z,0.80
2023-01-29T06:34:06.351Z,0.80
2023-01-29T06:36:33.719Z,0.80
2023-01-29T06:39:00.669Z,0.80
2023-01-29T06:41:28.731Z,0.80
2023-01-29T06:43:55.721Z,0.80
2023-01-29T06:46:22.666Z,0.80
2023-01-29T06:48:49.619Z,0.90
2023-01-29T06:51:16.596Z,0.90
2023-01-29T06:53:46.061Z,0.90
2023-01-29T06:56:16.629Z,0.90
2023-01-29T06:58:49.655Z,0.90
2023-01-29T07:01:35.031Z,0.90
2023-01-29T07:04:03.127Z,0.90
2023-01-29T07:06:30.476Z,0.90
2023-01-29T07:08:57.595Z,0.90
2023-01-29T07:11:24.650Z,0.90
2023-01-29T07:13:56.318Z,0.90
2023-01-29T07:16:23.622Z,0.90
2023-01-29T07:18:50.608Z,0.90
2023-01-29T07:21:17.648Z,1.00
2023-01-29T07:23:44.627Z,1.00
2023-01-29T07:26:11.985Z,0.90
2023-01-29T07:28:39.342Z,1.00
2023-01-29T07:31:06.801Z,0.90
2023-01-29T07:33:34.254Z,1.00
2023-01-29T07:36:01.213Z,1.00
2023-01-29T07:38:31.163Z,1.00
2023-01-29T07:40:58.091Z,1.00
2023-01-29T07:43:25.170Z,1.00
2023-01-29T07:45:52.293Z,1.00
2023-01-29T07:48:19.663Z,1.00
2023-01-29T07:50:56.191Z,1.00
2023-01-29T07:53:23.366Z,1.00
2023-01-29T07:55:52.883Z,1.00
2023-01-29T07:58:19.869Z,1.10
2023-01-29T08:00:46.874Z,1.10
2023-01-29T08:03:16.463Z,1.00
2023-01-29T08:05:46.406Z,1.10
2023-01-29T08:08:13.838Z,1.10
2023-01-29T08:10:55.706Z,1.10
2023-01-29T08:13:28.179Z,1.10
2023-01-29T08:15:58.944Z,1.10
2023-01-29T08:18:25.879Z,1.10
2023-01-29T08:20:53.041Z,1.10
2023-01-29T08:23:20.018Z,1.10
2023-01-29T08:26:00.681Z,1.10
2023-01-29T08:28:51.644Z,1.20
2023-01-29T08:31:42.799Z,1.20
2023-01-29T08:34:17.816Z,1.20
2023-01-29T08:36:57.674Z,1.20
2023-01-29T08:42:13.298Z,1.20
2023-01-29T08:44:40.201Z,1.20
2023-01-29T08:47:07.178Z,1.20
2023-01-29T08:49:34.181Z,1.30
2023-01-29T08:52:03.050Z,1.30
2023-01-29T08:54:30.676Z,1.30
2023-01-29T08:56:57.631Z,1.30
2023-01-29T08:59:24.724Z,1.30
2023-01-29T09:01:51.856Z,1.30
2023-01-29T09:04:18.779Z,1.40
2023-01-29T09:06:45.776Z,1.30
2023-01-29T09:09:14.570Z,1.30
2023-01-29T09:11:41.550Z,1.30
2023-01-29T09:14:09.932Z,1.40
2023-01-29T09:16:37.928Z,1.40
2023-01-29T09:19:04.955Z,1.40
2023-01-29T09:21:31.997Z,1.50
2023-01-29T09:23:58.911Z,1.50
2023-01-29T09:26:25.862Z,1.60
2023-01-29T09:28:52.779Z,1.60
2023-01-29T09:31:19.765Z,1.60
2023-01-29T09:33:49.127Z,1.60
2023-01-29T09:36:16.226Z,1.60
2023-01-29T09:38:43.115Z,1.60
2023-01-29T09:41:25.375Z,1.60
2023-01-29T09:43:56.824Z,1.70
2023-01-29T09:46:30.872Z,1.70
2023-01-29T09:49:03.868Z,1.70
2023-01-29T09:51:34.362Z,1.70
2023-01-29T09:54:07.523Z,1.70
2023-01-29T09:56:35.309Z,1.70
2023-01-29T09:59:02.498Z,1.80
2023-01-29T10:02:05.119Z,1.80
2023-01-29T10:04:34.752Z,1.80
2023-01-29T10:07:11.432Z,1.80
2023-01-29T10:09:47.842Z,2.00
2023-01-29T10:12:29.989Z,2.00
2023-01-29T10:15:17.662Z,2.00
2023-01-29T10:17:52.433Z,2.00
2023-01-29T10:20:31.870Z,2.00
2023-01-29T10:23:18.966Z,2.10
2023-01-29T10:25:47.209Z,2.00
2023-01-29T10:28:17.680Z,2.10
2023-01-29T10:30:51.575Z,2.10
2023-01-29T10:33:49.275Z,2.10
2023-01-29T10:36:49.873Z,2.10
2023-01-29T10:39:36.840Z,2.10
2023-01-29T10:42:10.423Z,2.10
2023-01-29T10:44:43.131Z,2.00
2023-01-29T10:47:15.851Z,2.10
2023-01-29T10:50:02.422Z,2.10
2023-01-29T10:52:37.310Z,2.10
2023-01-29T10:55:22.900Z,2.20
2023-01-29T10:57:49.837Z,2.20
2023-01-29T11:00:16.825Z,2.20
2023-01-29T11:02:46.140Z,2.20
2023-01-29T11:05:34.429Z,2.20
2023-01-29T11:08:13.175Z,2.20
2023-01-29T11:10:52.796Z,2.20
2023-01-29T11:13:19.818Z,2.30
2023-01-29T11:15:46.706Z,2.30
2023-01-29T11:18:15.572Z,2.30
2023-01-29T11:20:46.006Z,2.30
2023-01-29T11:23:38.983Z,2.30
2023-01-29T11:26:20.930Z,2.30
2023-01-29T11:29:07.908Z,2.30
2023-01-29T11:31:47.830Z,2.30
2023-01-29T11:34:41.919Z,2.30
2023-01-29T11:37:28.979Z,2.30
2023-01-29T11:40:14.063Z,2.30
2023-01-29T11:43:00.956Z,2.40
2023-01-29T11:45:44.874Z,2.40
2023-01-29T11:48:35.956Z,2.40
2023-01-29T11:51:17.881Z,2.40
2023-01-29T11:54:05.961Z,2.50
2023-01-29T11:56:47.843Z,2.50
2023-01-29T11:59:44.310Z,2.50
2023-01-29T12:02:23.021Z,2.50
2023-01-29T12:04:50.751Z,2.50
2023-01-29T12:07:18.814Z,2.50
2023-01-29T12:10:03.689Z,2.50
2023-01-29T12:12:50.957Z,2.40
2023-01-29T12:15:30.947Z,2.50
2023-01-29T12:18:32.887Z,2.50
2023-01-29T12:21:12.982Z,2.50
2023-01-29T12:23:49.454Z,2.50
2023-01-29T12:26:19.754Z,2.50
2023-01-29T12:29:03.619Z,2.60
2023-01-29T12:31:41.591Z,2.60
2023-01-29T12:34:40.880Z,2.60
2023-01-29T12:37:28.188Z,2.60
2023-01-29T12:39:55.436Z,2.60
2023-01-29T12:42:31.980Z,2.60
2023-01-29T12:45:15.237Z,2.60
2023-01-29T12:47:44.307Z,2.60
2023-01-29T12:50:32.245Z,2.60
2023-01-29T12:53:21.542Z,2.60
2023-01-29T12:55:55.567Z,2.60
2023-01-29T12:58:31.449Z,2.60
2023-01-29T13:01:03.237Z,2.70
2023-01-29T13:03:38.573Z,2.70
2023-01-29T13:06:28.405Z,2.70
2023-01-29T13:08:56.965Z,2.70
2023-01-29T13:11:37.777Z,2.80
2023-01-29T13:14:09.581Z,2.80
2023-01-29T13:16:44.022Z,2.80
2023-01-29T13:19:29.513Z,2.80
2023-01-29T13:21:59.292Z,2.80
2023-01-29T13:24:30.072Z,2.90
2023-01-29T13:26:57.210Z,2.80
2023-01-29T13:29:25.578Z,2.80
2023-01-29T13:32:07.049Z,2.80
2023-01-29T13:34:45.242Z,2.80
2023-01-29T13:37:24.971Z,2.70
2023-01-29T13:39:52.931Z,2.80
2023-01-29T13:42:21.325Z,2.80
2023-01-29T13:44:57.826Z,2.80
2023-01-29T13:47:31.940Z,2.80
2023-01-29T13:50:02.303Z,2.70
2023-01-29T13:52:55.563Z,2.70
2023-01-29T13:55:26.399Z,2.70
2023-01-29T13:57:56.878Z,2.60
2023-01-29T14:00:31.150Z,2.60
2023-01-29T14:03:01.109Z,2.60
2023-01-29T14:05:31.488Z,2.60
2023-01-29T14:07:59.561Z,2.60
2023-01-29T14:10:27.950Z,2.50
2023-01-29T14:12:55.781Z,2.50
2023-01-29T14:15:24.436Z,2.50
2023-01-29T14:17:55.794Z,2.50
2023-01-29T14:20:45.217Z,2.50
2023-01-29T14:23:30.889Z,2.50
2023-01-29T14:25:59.665Z,2.50
2023-01-29T14:28:29.179Z,2.50
2023-01-29T14:30:56.506Z,2.50
2023-01-29T14:33:23.572Z,2.50
2023-01-29T14:35:51.217Z,2.60
2023-01-29T14:38:18.379Z,2.60
2023-01-29T14:40:48.305Z,2.70
2023-01-29T14:43:20.065Z,2.70
2023-01-29T14:45:48.048Z,2.70
2023-01-29T14:48:33.785Z,2.70
2023-01-29T14:51:07.995Z,2.80
2023-01-29T14:53:52.080Z,2.80
2023-01-29T14:56:29.903Z,2.80
2023-01-29T14:59:11.877Z,2.70
2023-01-29T15:01:39.640Z,2.70
2023-01-29T15:04:27.047Z,2.70
2023-01-29T15:07:04.560Z,2.60
2023-01-29T15:09:40.829Z,2.70
2023-01-29T15:12:14.618Z,2.60
2023-01-29T15:14:59.147Z,2.70
2023-01-29T15:17:57.177Z,2.70
2023-01-29T15:20:32.519Z,2.60
2023-01-29T15:23:00.013Z,2.70
2023-01-29T15:25:30.773Z,2.60
2023-01-29T15:27:58.350Z,2.60
2023-01-29T15:30:31.142Z,2.50
2023-01-29T15:32:58.378Z,2.60
2023-01-29T15:35:35.742Z,2.60
2023-01-29T15:38:04.798Z,2.60
2023-01-29T15:40:32.054Z,2.60
2023-01-29T15:43:01.234Z,2.50
2023-01-29T15:45:32.279Z,2.50
2023-01-29T15:48:05.065Z,2.50
2023-01-29T15:50:33.063Z,2.40
2023-01-29T15:53:03.734Z,2.40
2023-01-29T15:55:30.978Z,2.40
2023-01-29T15:57:58.130Z,2.40
2023-01-29T16:00:27.745Z,2.40
2023-01-29T16:02:54.942Z,2.50
2023-01-29T16:05:24.420Z,2.40
2023-01-29T16:07:51.968Z,2.40
2023-01-29T16:10:22.847Z,2.40
2023-01-29T16:12:51.730Z,2.50
2023-01-29T16:15:22.381Z,2.50
2023-01-29T16:17:50.568Z,2.50
2023-01-29T16:20:30.429Z,2.50
2023-01-29T16:22:57.633Z,2.50
2023-01-29T16:25:24.647Z,2.50
2023-01-29T16:27:51.777Z,2.50
2023-01-29T16:30:19.085Z,2.40
2023-01-29T16:32:46.155Z,2.40
2023-01-29T16:35:17.430Z,2.50
2023-01-29T16:37:48.001Z,2.50
2023-01-29T16:40:35.524Z,2.50
2023-01-29T16:43:17.833Z,2.50
2023-01-29T16:46:02.403Z,2.50
2023-01-29T16:48:33.692Z,2.60
2023-01-29T16:51:12.504Z,2.60
2023-01-29T16:53:39.796Z,2.60
2023-01-29T16:56:08.400Z,2.60
2023-01-29T16:58:35.646Z,2.50
2023-01-29T17:01:08.832Z,2.50
2023-01-29T17:03:37.179Z,2.50
2023-01-29T17:06:11.588Z,2.60
2023-01-29T17:08:38.756Z,2.50
2023-01-29T17:11:05.986Z,2.50
2023-01-29T17:13:43.927Z,2.50
2023-01-29T17:16:31.372Z,2.60
2023-01-29T17:18:59.330Z,2.60
2023-01-29T17:21:26.508Z,2.60
2023-01-29T17:23:53.578Z,2.60
2023-01-29T17:26:22.709Z,2.50
2023-01-29T17:28:50.393Z,2.50
2023-01-29T17:31:17.512Z,2.50
2023-01-29T17:33:44.991Z,2.60
2023-01-29T17:36:13.925Z,2.60
2023-01-29T17:38:47.397Z,2.60
2023-01-29T17:41:25.836Z,2.60
2023-01-29T17:43:53.019Z,2.60
2023-01-29T17:46:20.296Z,2.60
2023-01-29T17:48:49.350Z,2.50
2023-01-29T17:51:17.349Z,2.50
2023-01-29T17:53:57.275Z,2.50
2023-01-29T17:56:37.336Z,2.50
2023-01-29T17:59:22.550Z,2.50
2023-01-29T18:01:50.953Z,2.50
2023-01-29T18:04:18.089Z,2.50
2023-01-29T18:06:47.121Z,2.60
2023-01-29T18:09:15.140Z,2.50
2023-01-29T18:11:42.574Z,2.60
2023-01-29T18:14:13.982Z,2.60
2023-01-29T18:16:43.103Z,2.60
2023-01-29T18:19:14.985Z,2.60
2023-01-29T18:21:42.047Z,2.70
2023-01-29T18:24:09.048Z,2.70
2023-01-29T18:26:36.246Z,2.70
2023-01-29T18:29:03.895Z,2.70
2023-01-29T18:31:31.143Z,2.80
2023-01-29T18:33:58.319Z,2.80
2023-01-29T18:36:25.376Z,2.70
2023-01-29T18:38:59.761Z,2.80
2023-01-29T18:41:33.671Z,2.80
2023-01-29T18:44:00.613Z,2.80
2023-01-29T18:46:31.031Z,2.80
2023-01-29T18:48:58.088Z,2.80
2023-01-29T18:51:25.236Z,2.80
2023-01-29T18:53:52.595Z,2.80
2023-01-29T18:56:33.327Z,2.80
2023-01-29T18:59:13.331Z,2.70
2023-01-29T19:01:47.091Z,2.60
2023-01-29T19:04:14.226Z,2.60
2023-01-29T19:06:41.185Z,2.60
2023-01-29T19:09:08.472Z,2.50
2023-01-29T19:11:35.404Z,2.60
2023-01-29T19:14:02.534Z,2.60
2023-01-29T19:16:29.472Z,2.60
2023-01-29T19:18:56.566Z,2.60
2023-01-29T19:21:24.636Z,2.60
2023-01-29T19:23:51.700Z,2.60
2023-01-29T19:26:19.234Z,2.50
2023-01-29T19:28:46.269Z,2.60
2023-01-29T19:31:13.438Z,2.60
2023-01-29T19:33:40.766Z,2.60
2023-01-29T19:36:08.021Z,2.60
2023-01-29T19:38:38.617Z,2.60
2023-01-29T19:41:05.868Z,2.60
2023-01-29T19:43:32.948Z,2.50
2023-01-29T19:46:00.566Z,2.60
2023-01-29T19:48:41.400Z,2.50
2023-01-29T19:51:15.060Z,2.50
2023-01-29T19:53:45.050Z,2.50
2023-01-29T19:56:15.451Z,2.50
2023-01-29T19:58:42.876Z,2.50
2023-01-29T20:01:14.987Z,2.50
2023-01-29T20:03:42.254Z,2.40
2023-01-29T20:06:09.485Z,2.40
2023-01-29T20:08:36.521Z,2.40
2023-01-29T20:11:03.679Z,2.40
2023-01-29T20:13:30.613Z,2.40
2023-01-29T20:15:58.143Z,2.40
2023-01-29T20:18:25.096Z,2.40
2023-01-29T20:20:53.572Z,2.50
2023-01-29T20:23:37.735Z,2.50
2023-01-29T20:26:05.987Z,2.50
2023-01-29T20:28:33.037Z,2.50
2023-01-29T20:31:00.528Z,2.50
2023-01-29T20:33:27.475Z,2.50
2023-01-29T20:35:55.565Z,2.50
2023-01-29T20:38:23.014Z,2.50
2023-01-29T20:40:50.136Z,2.60
2023-01-29T20:43:17.555Z,2.60
2023-01-29T20:46:26.213Z,2.60
2023-01-29T20:48:55.968Z,2.50
2023-01-29T20:51:23.529Z,2.50
2023-01-29T20:53:55.678Z,2.50
2023-01-29T20:56:32.195Z,2.60
2023-01-29T20:59:05.357Z,2.60
2023-01-29T21:01:32.298Z,2.60
2023-01-29T21:03:59.217Z,2.60
2023-01-29T21:06:26.200Z,2.60
2023-01-29T21:08:53.171Z,2.70
2023-01-29T21:11:21.034Z,2.70
2023-01-29T21:13:48.097Z,2.70
2023-01-29T21:16:15.039Z,2.70
2023-01-29T21:18:42.030Z,2.70
2023-01-29T21:21:08.992Z,2.80
2023-01-29T21:23:36.139Z,2.80
2023-01-29T21:26:03.857Z,2.80
2023-01-29T21:28:30.947Z,2.80
2023-01-29T21:31:05.600Z,2.80
2023-01-29T21:33:39.140Z,2.90
2023-01-29T21:36:06.591Z,2.90
2023-01-29T21:38:33.576Z,2.90
2023-01-29T21:41:01.487Z,2.90
2023-01-29T21:43:28.486Z,2.90
2023-01-29T21:45:57.260Z,2.90
2023-01-29T21:48:24.403Z,2.90
2023-01-29T21:50:52.201Z,2.90
2023-01-29T21:53:19.459Z,2.90
2023-01-29T21:55:46.792Z,3.00
2023-01-29T21:58:14.661Z,2.90
2023-01-29T22:00:41.906Z,2.90
2023-01-29T22:03:08.921Z,2.90
2023-01-29T22:05:35.952Z,2.90
2023-01-29T22:08:04.894Z,2.90
2023-01-29T22:10:34.220Z,2.90
2023-01-29T22:13:02.100Z,2.90
2023-01-29T22:15:29.120Z,3.00
2023-01-29T22:17:56.063Z,3.00
2023-01-29T22:20:30.116Z,3.00
2023-01-29T22:22:58.905Z,3.00
2023-01-29T22:25:26.306Z,3.00
2023-01-29T22:27:53.387Z,3.00
2023-01-29T22:30:20.661Z,3.00
2023-01-29T22:32:47.731Z,3.00
2023-01-29T22:35:14.805Z,3.00
2023-01-29T22:37:41.749Z,3.00
2023-01-29T22:40:09.294Z,3.00
2023-01-29T22:42:36.348Z,3.00
2023-01-29T22:45:03.354Z,3.00
2023-01-29T22:47:32.252Z,3.00
2023-01-29T22:49:59.203Z,3.00
2023-01-29T22:52:28.089Z,3.00
2023-01-29T22:54:55.209Z,3.00
2023-01-29T22:57:22.268Z,3.10
2023-01-29T22:59:52.485Z,3.10
2023-01-29T23:02:19.551Z,3.10
2023-01-29T23:04:46.493Z,3.20
2023-01-29T23:07:13.387Z,3.20
2023-01-29T23:09:40.442Z,3.20
2023-01-29T23:12:08.000Z,3.20
2023-01-29T23:14:34.905Z,3.20
2023-01-29T23:17:02.505Z,3.20
2023-01-29T23:19:30.177Z,3.20
2023-01-29T23:21:57.196Z,3.20
2023-01-29T23:24:30.575Z,3.20
2023-01-29T23:27:16.104Z,3.30
2023-01-29T23:29:43.760Z,3.30
2023-01-29T23:32:11.752Z,3.30
2023-01-29T23:34:38.850Z,3.30
2023-01-29T23:37:05.915Z,3.30
2023-01-29T23:39:32.910Z,3.30
2023-01-29T23:41:59.925Z,3.40
2023-01-29T23:44:26.991Z,3.40
2023-01-29T23:46:54.166Z,3.40
2023-01-29T23:49:21.301Z,3.40
2023-01-29T23:51:48.928Z,3.40
2023-01-29T23:54:16.759Z,3.40
2023-01-29T23:56:44.205Z,3.50
2023-01-29T23:59:11.182Z,3.50
